Time;durP1;ratioP1;P1;durP2;ratioP2;P2;SDS_P1;SDS_P2;PMS_P1;PMS_P2;Temp;Humidity;BMP_temperature;BMP_pressure;BME280_temperature;BME280_humidity;BME280_pressure;Samples;Min_cycle;Max_cycle;Signal;HPM_P1;HPM_P2
2021/05/17 00:01:12;;;;;;;7.22;3.50;;;;;;;10.28;100.00;99088.31;5027372;28;20046;-80
2021/05/17 00:03:42;;;;;;;9.25;3.50;;;;;;;10.34;100.00;99104.66;5031805;28;20056;-81
2021/05/17 00:06:10;;;;;;;5.78;3.95;;;;;;;10.35;100.00;99100.22;5010540;28;20050;-80
2021/05/17 00:08:36;;;;;;;5.85;3.47;;;;;;;10.33;100.00;99104.75;5021705;28;20060;-82
2021/05/17 00:11:03;;;;;;;7.57;3.83;;;;;;;10.36;100.00;99104.56;5018225;28;20076;-81
2021/05/17 00:13:30;;;;;;;7.63;3.60;;;;;;;10.34;100.00;99106.44;5025400;28;20042;-81
2021/05/17 00:15:57;;;;;;;6.57;3.20;;;;;;;10.35;100.00;99106.34;5029655;28;20033;-81
2021/05/17 00:18:24;;;;;;;4.57;3.38;;;;;;;10.32;100.00;99111.00;5032737;28;20625;-79
2021/05/17 00:20:51;;;;;;;6.13;3.35;;;;;;;10.35;100.00;99113.44;5027195;28;20129;-79
2021/05/17 00:23:18;;;;;;;4.03;3.08;;;;;;;10.33;100.00;99117.97;5027150;28;20042;-81
2021/05/17 00:25:46;;;;;;;6.53;3.05;;;;;;;10.28;100.00;99112.13;5027568;28;20081;-81
2021/05/17 00:28:13;;;;;;;5.60;2.95;;;;;;;10.26;100.00;99116.69;5026778;28;20042;-81
2021/05/17 00:30:41;;;;;;;4.97;3.13;;;;;;;10.18;100.00;99112.75;5025770;28;20114;-81
2021/05/17 00:33:09;;;;;;;5.57;2.80;;;;;;;10.11;100.00;99114.06;5020492;28;20033;-80
2021/05/17 00:35:36;;;;;;;4.10;2.60;;;;;;;10.10;100.00;99112.34;5032060;28;20053;-82
2021/05/17 00:38:04;;;;;;;5.72;2.47;;;;;;;10.06;100.00;99113.53;5025568;28;20069;-80
2021/05/17 00:40:31;;;;;;;6.22;2.72;;;;;;;10.09;100.00;99115.09;5020429;28;20078;-81
2021/05/17 00:42:58;;;;;;;4.75;2.70;;;;;;;10.05;100.00;99111.84;5017845;28;20117;-80
2021/05/17 00:45:26;;;;;;;4.97;2.53;;;;;;;9.97;100.00;99106.19;5002492;28;20665;-80
2021/05/17 00:47:54;;;;;;;6.72;3.10;;;;;;;10.01;100.00;99126.19;5026769;28;20070;-81
2021/05/17 00:50:24;;;;;;;4.72;3.00;;;;;;;9.94;100.00;99127.53;5031625;28;20088;-83
2021/05/17 00:52:54;;;;;;;6.10;3.20;;;;;;;9.91;100.00;99118.97;5038759;28;20093;-82
2021/05/17 00:55:21;;;;;;;4.53;3.00;;;;;;;9.85;100.00;99128.97;5038274;28;20101;-82
2021/05/17 00:57:48;;;;;;;3.88;2.95;;;;;;;9.83;100.00;99133.50;5040324;28;20056;-81
2021/05/17 01:00:21;;;;;;;5.18;3.17;;;;;;;9.80;100.00;99127.56;5024042;28;20054;-82
2021/05/17 01:02:50;;;;;;;6.18;3.00;;;;;;;9.79;100.00;99129.34;5017252;28;20054;-82
2021/05/17 01:05:17;;;;;;;11.57;3.65;;;;;;;9.77;100.00;99128.59;5019919;28;20045;-82
2021/05/17 01:07:49;;;;;;;7.50;3.20;;;;;;;9.73;100.00;99131.56;5038193;28;20062;-82
2021/05/17 01:10:20;;;;;;;6.47;3.88;;;;;;;9.71;100.00;99126.38;5028003;28;20049;-82
2021/05/17 01:12:49;;;;;;;6.13;3.53;;;;;;;9.73;100.00;99128.91;5017631;28;20060;-83
2021/05/17 01:15:18;;;;;;;3.72;2.72;;;;;;;9.74;100.00;99131.47;5012184;28;20050;-82
2021/05/17 01:17:45;;;;;;;3.78;2.90;;;;;;;9.68;100.00;99125.72;5017406;28;20066;-82
2021/05/17 01:20:18;;;;;;;6.13;3.00;;;;;;;9.66;100.00;99132.88;5018149;28;20132;-82
2021/05/17 01:23:00;;;;;;;5.65;2.90;;;;;;;9.59;100.00;99128.94;5007706;28;20065;-83
2021/05/17 01:25:29;;;;;;;4.28;2.63;;;;;;;9.53;100.00;99140.75;5031696;28;20125;-83
2021/05/17 01:27:57;;;;;;;4.15;2.30;;;;;;;9.48;100.00;99145.44;5029649;28;20050;-83
2021/05/17 01:30:24;;;;;;;4.20;2.42;;;;;;;9.44;100.00;99139.50;5030648;28;20060;-82
2021/05/17 01:32:52;;;;;;;2.90;2.17;;;;;;;9.45;100.00;99137.72;5017449;28;20108;-82
2021/05/17 01:35:21;;;;;;;3.38;2.40;;;;;;;9.46;100.00;99144.69;4986219;28;20064;-82
2021/05/17 01:37:49;;;;;;;3.17;2.25;;;;;;;9.49;100.00;99139.22;5012495;28;20052;-82
2021/05/17 01:40:19;;;;;;;3.30;2.38;;;;;;;9.57;100.00;99136.13;5022139;28;20049;-83
2021/05/17 01:42:47;;;;;;;3.10;2.20;;;;;;;9.61;100.00;99140.25;5017524;28;20049;-83
2021/05/17 01:45:14;;;;;;;3.22;2.20;;;;;;;9.57;100.00;99120.25;5021761;28;20438;-83
2021/05/17 01:47:42;;;;;;;3.42;2.20;;;;;;;9.55;100.00;99120.34;5015589;28;20110;-82
2021/05/17 01:50:12;;;;;;;2.85;1.85;;;;;;;9.64;100.00;99135.63;5014914;28;20380;-83
2021/05/17 01:52:39;;;;;;;3.53;2.10;;;;;;;9.68;100.00;99141.56;5019576;28;20523;-82
2021/05/17 01:55:09;;;;;;;3.92;1.60;;;;;;;9.71;100.00;99136.94;5002400;28;20072;-82
2021/05/17 01:57:36;;;;;;;8.70;2.10;;;;;;;9.71;100.00;99136.94;5018449;28;20054;-81
2021/05/17 02:00:06;;;;;;;2.88;1.70;;;;;;;9.73;100.00;99147.44;5009667;28;20058;-82
2021/05/17 02:02:35;;;;;;;1.98;1.67;;;;;;;9.71;100.00;99141.38;5014153;28;20069;-82
2021/05/17 02:05:05;;;;;;;1.85;1.10;;;;;;;9.70;100.00;99145.81;5017009;28;20113;-82
2021/05/17 02:07:34;;;;;;;2.58;1.67;;;;;;;9.76;100.00;99149.84;5013787;28;20050;-81
2021/05/17 02:10:05;;;;;;;1.80;1.13;;;;;;;9.79;100.00;99147.00;4997463;28;20117;-82
2021/05/17 02:12:33;;;;;;;;;;;;;;;9.79;100.00;99154.94;5016562;28;20128;-81
2021/05/17 02:15:00;;;;;;;2.15;1.17;;;;;;;9.74;100.00;99142.03;5017462;28;19985;-81
2021/05/17 02:17:27;;;;;;;2.70;1.05;;;;;;;9.73;100.00;99150.91;5012364;28;20053;-81
2021/05/17 02:19:54;;;;;;;3.08;1.20;;;;;;;9.70;100.00;99140.53;5012253;28;20113;-81
2021/05/17 02:22:22;;;;;;;2.28;1.10;;;;;;;9.70;100.00;99152.91;4999261;28;20925;-81
2021/05/17 02:24:49;;;;;;;1.73;1.10;;;;;;;9.63;100.00;99147.13;5016070;28;20045;-80
2021/05/17 02:27:17;;;;;;;2.05;0.90;;;;;;;9.65;100.00;99160.25;5016552;28;20106;-80
2021/05/17 02:29:46;;;;;;;1.75;1.13;;;;;;;9.63;100.00;99148.94;5019691;28;20129;-82
2021/05/17 02:32:24;;;;;;;1.55;1.00;;;;;;;9.64;100.00;99140.91;5018534;28;20120;-82
2021/05/17 02:34:52;;;;;;;3.30;1.40;;;;;;;9.63;100.00;99148.94;5022850;28;20072;-81
2021/05/17 02:37:19;;;;;;;2.67;0.98;;;;;;;9.62;100.00;99147.22;5012236;28;20054;-82
2021/05/17 02:39:46;;;;;;;1.33;0.90;;;;;;;9.49;100.00;99142.72;5015851;28;20123;-81
2021/05/17 02:42:17;;;;;;;1.42;0.90;;;;;;;9.62;100.00;99161.28;5019010;28;20084;-81
2021/05/17 02:44:44;;;;;;;1.17;0.82;;;;;;;9.62;100.00;99157.78;5001642;28;20050;-80
2021/05/17 02:47:11;;;;;;;2.13;1.13;;;;;;;9.66;100.00;99162.81;5027111;28;20048;-79
2021/05/17 02:49:38;;;;;;;2.28;0.95;;;;;;;9.63;100.00;99157.69;5020372;28;20038;-79
2021/05/17 02:52:06;;;;;;;3.33;0.90;;;;;;;9.65;100.00;99163.75;5012853;28;20125;-81
2021/05/17 02:54:36;;;;;;;1.65;1.00;;;;;;;9.62;100.00;99158.66;5004285;28;20145;-81
2021/05/17 02:57:10;;;;;;;1.88;0.90;;;;;;;9.70;100.00;99160.81;5023119;28;20061;-82
2021/05/17 02:59:37;;;;;;;1.05;0.77;;;;;;;9.70;100.00;99172.25;5024410;28;20460;-81
2021/05/17 03:02:10;;;;;;;2.47;0.98;;;;;;;9.67;100.00;99166.31;5014343;28;20056;-81
2021/05/17 03:04:40;;;;;;;2.58;1.20;;;;;;;9.63;100.00;99170.06;5010721;28;20057;-80
2021/05/17 03:07:11;;;;;;;1.80;1.10;;;;;;;9.61;100.00;99171.97;5013851;28;20497;-81
2021/05/17 03:09:43;;;;;;;2.05;1.20;;;;;;;9.61;100.00;99171.97;5015101;28;20489;-80
2021/05/17 03:12:10;;;;;;;1.83;1.60;;;;;;;9.57;100.00;99170.47;5014562;28;20050;-80
2021/05/17 03:14:41;;;;;;;3.63;1.40;;;;;;;9.58;100.00;99172.16;5016125;28;20118;-80
2021/05/17 03:17:11;;;;;;;1.90;1.40;;;;;;;9.59;100.00;99176.50;5011792;28;20046;-81
2021/05/17 03:19:38;;;;;;;4.93;1.83;;;;;;;9.53;100.00;99163.66;5020618;28;20109;-81
2021/05/17 03:22:06;;;;;;;5.50;1.70;;;;;;;9.57;100.00;99176.59;5014863;28;20077;-81
2021/05/17 03:24:37;;;;;;;3.35;1.60;;;;;;;9.62;100.00;99178.94;5016513;28;20145;-82
2021/05/17 03:27:24;;;;;;;3.40;1.90;;;;;;;9.64;100.00;99177.91;5016165;28;20073;-81
2021/05/17 03:29:51;;;;;;;4.13;1.80;;;;;;;9.63;100.00;99175.34;5017673;28;20042;-82
2021/05/17 03:32:19;;;;;;;2.88;2.00;;;;;;;9.64;100.00;99174.41;5018010;28;20050;-81
2021/05/17 03:34:47;;;;;;;3.30;1.90;;;;;;;9.61;100.00;99186.03;5012018;28;20110;-80
2021/05/17 03:37:14;;;;;;;2.80;1.90;;;;;;;9.62;100.00;99184.22;5030355;28;20077;-80
2021/05/17 03:39:46;;;;;;;4.82;2.13;;;;;;;9.63;100.00;99183.28;5008425;28;20042;-81
2021/05/17 03:42:13;;;;;;;4.22;2.10;;;;;;;9.66;100.00;99180.47;5028380;28;20046;-81
2021/05/17 03:44:39;;;;;;;4.68;2.05;;;;;;;9.68;100.00;99182.06;5010556;28;20070;-81
2021/05/17 03:47:06;;;;;;;2.85;2.15;;;;;;;9.76;100.00;99184.22;5028899;28;20054;-81
2021/05/17 03:49:34;;;;;;;3.63;2.40;;;;;;;9.79;100.00;99178.75;5033049;28;20077;-81
2021/05/17 03:52:01;;;;;;;6.07;2.60;;;;;;;9.80;100.00;99191.88;5026872;28;20069;-81
2021/05/17 03:54:27;;;;;;;3.20;2.20;;;;;;;9.81;100.00;99190.06;5027694;28;20084;-80
2021/05/17 03:56:54;;;;;;;3.53;2.75;;;;;;;9.84;100.00;99196.03;5032726;28;20117;-81
2021/05/17 03:59:21;;;;;;;2.80;2.47;;;;;;;9.85;100.00;99186.28;5024523;28;20049;-81
2021/05/17 04:01:49;;;;;;;3.58;2.53;;;;;;;9.84;100.00;99182.81;5023644;28;20042;-80
2021/05/17 04:04:19;;;;;;;4.38;2.65;;;;;;;9.89;100.00;99190.44;5022759;28;20072;-81
2021/05/17 04:06:51;;;;;;;3.05;2.75;;;;;;;9.89;100.00;99181.66;5015377;28;20182;-81
2021/05/17 04:14:48;;;;;;;4.70;2.95;;;;;;;10.08;100.00;99188.31;5028037;28;20046;-81
2021/05/17 04:17:15;;;;;;;4.85;2.78;;;;;;;10.16;100.00;99191.34;5031079;28;20133;-81
2021/05/17 04:19:41;;;;;;;3.83;3.20;;;;;;;10.24;100.00;99193.50;5027817;28;20118;-80
2021/05/17 04:22:08;;;;;;;5.22;3.20;;;;;;;10.36;100.00;99198.03;5023878;28;20069;-81
2021/05/17 04:24:35;;;;;;;3.38;2.78;;;;;;;10.38;100.00;99192.63;5033602;28;20041;-81
2021/05/17 04:27:01;;;;;;;4.30;2.65;;;;;;;10.50;100.00;99195.31;5031285;28;20041;-81
2021/05/17 04:29:29;;;;;;;4.68;2.95;;;;;;;10.58;100.00;99199.25;5026939;28;20042;-81
2021/05/17 04:31:56;;;;;;;7.18;3.38;;;;;;;10.60;100.00;99200.00;5019243;28;20061;-79
2021/05/17 04:34:22;;;;;;;2.80;2.50;;;;;;;10.60;100.00;99200.00;5018035;28;20096;-80
2021/05/17 04:36:49;;;;;;;4.32;2.97;;;;;;;10.60;100.00;99207.94;5021649;28;20050;-81
2021/05/17 04:39:16;;;;;;;3.92;3.15;;;;;;;10.55;100.00;99213.53;5020440;28;20041;-82
2021/05/17 04:41:42;;;;;;;6.40;3.28;;;;;;;10.51;100.00;99212.06;5019433;28;20050;-82
2021/05/17 04:44:11;;;;;;;7.22;3.20;;;;;;;10.46;100.00;99217.63;5018599;28;20069;-81
2021/05/17 04:46:37;;;;;;;7.75;3.30;;;;;;;10.53;100.00;99215.44;5024934;28;20480;-82
2021/05/17 04:49:06;;;;;;;3.92;3.05;;;;;;;10.58;100.00;99210.69;5030374;28;20053;-80
2021/05/17 04:51:32;;;;;;;4.05;3.03;;;;;;;10.65;99.98;99211.13;5014730;28;20041;-80
2021/05/17 04:54:00;;;;;;;4.95;3.35;;;;;;;10.72;100.00;99220.34;5017169;28;20060;-79
2021/05/17 04:56:27;;;;;;;9.02;3.08;;;;;;;10.75;99.98;99221.00;5030571;28;20038;-81
2021/05/17 04:58:53;;;;;;;4.47;3.22;;;;;;;10.77;99.85;99224.41;5016056;28;20045;-81
2021/05/17 05:01:20;;;;;;;4.53;3.30;;;;;;;10.80;100.00;99224.22;5028970;28;20097;-80
2021/05/17 05:03:47;;;;;;;4.20;3.00;;;;;;;10.93;100.00;99231.34;5030348;28;20045;-80
2021/05/17 05:06:13;;;;;;;7.57;3.78;;;;;;;11.03;100.00;99232.41;5032398;28;20053;-80
2021/05/17 05:08:40;;;;;;;4.90;3.53;;;;;;;11.10;99.47;99231.91;5032594;28;20081;-80
2021/05/17 05:11:06;;;;;;;7.75;3.35;;;;;;;11.24;98.87;99228.31;5029238;28;20109;-79
2021/05/17 05:13:33;;;;;;;4.82;3.15;;;;;;;11.38;97.37;99243.25;5028627;28;20029;-79
2021/05/17 05:15:59;;;;;;;4.95;3.33;;;;;;;11.35;96.38;99240.81;5021771;28;20050;-80
2021/05/17 05:18:28;;;;;;;5.03;2.92;;;;;;;11.36;96.97;99247.81;5025037;28;20080;-81
2021/05/17 05:20:55;;;;;;;4.93;3.30;;;;;;;11.34;96.49;99247.91;5023964;28;20066;-80
2021/05/17 05:23:22;;;;;;;7.95;3.55;;;;;;;11.37;96.65;99249.53;5031325;28;20132;-80
2021/05/17 05:31:48;;;;;;;6.68;3.30;;;;;;;11.48;95.46;99257.59;4994992;28;20049;-79
2021/05/17 05:34:08;;;;;;;3.47;2.72;;;;;;;11.46;95.23;99262.16;5028161;28;20046;-79
2021/05/17 05:36:37;;;;;;;4.82;2.67;;;;;;;11.48;95.25;99257.59;5026546;28;20042;-80
2021/05/17 05:39:04;;;;;;;4.35;3.05;;;;;;;11.40;95.56;99260.78;5028372;28;20084;-79
2021/05/17 05:41:32;;;;;;;4.20;2.58;;;;;;;11.38;95.38;99262.66;5027689;28;20140;-80
2021/05/17 05:43:58;;;;;;;5.72;2.78;;;;;;;11.33;95.25;99259.50;5020653;28;20077;-80
2021/05/17 05:46:25;;;;;;;4.40;3.10;;;;;;;11.35;95.26;99273.47;5021145;28;20054;-80
2021/05/17 05:48:52;;;;;;;5.65;2.67;;;;;;;11.38;95.55;99267.97;5002443;28;20096;-80
2021/05/17 05:51:22;;;;;;;4.75;2.83;;;;;;;11.41;95.69;99274.88;5001239;28;20050;-80
2021/05/17 05:53:50;;;;;;;7.65;3.05;;;;;;;11.51;95.71;99274.13;5018178;28;20149;-80
2021/05/17 05:56:18;;;;;;;5.05;3.05;;;;;;;11.67;94.63;99271.28;5017226;28;20148;-80
2021/05/17 05:58:46;;;;;;;3.92;2.60;;;;;;;11.72;93.60;99276.25;5016948;28;20041;-80
2021/05/17 06:01:14;;;;;;;3.65;2.47;;;;;;;11.81;92.47;99280.94;5012300;28;21073;-79
2021/05/17 06:03:41;;;;;;;3.10;2.33;;;;;;;11.92;91.93;99283.72;5027310;28;20042;-80
2021/05/17 06:06:08;;;;;;;3.40;2.05;;;;;;;12.17;90.56;99285.47;5023529;28;20140;-79
2021/05/17 06:08:40;;;;;;;3.05;2.17;;;;;;;12.54;89.51;99281.91;5024000;28;20084;-79
2021/05/17 06:11:09;;;;;;;2.95;2.20;;;;;;;12.57;88.24;99286.13;5007847;28;20042;-79
2021/05/17 06:13:38;;;;;;;4.28;1.92;;;;;;;12.44;88.26;99291.47;5024339;28;20114;-79
2021/05/17 06:16:08;;;;;;;2.13;1.90;;;;;;;12.30;88.73;99289.81;5024445;28;20049;-80
2021/05/17 06:18:35;;;;;;;3.38;1.98;;;;;;;12.13;87.82;99297.25;5019758;28;20575;-80
2021/05/17 06:21:03;;;;;;;4.18;2.05;;;;;;;11.99;89.16;99289.44;5017389;28;20049;-81
2021/05/17 06:23:30;;;;;;;3.47;2.15;;;;;;;11.93;90.52;99296.03;5007509;28;20045;-82
2021/05/17 06:26:00;;;;;;;3.70;2.10;;;;;;;11.87;90.70;99302.59;5016642;28;20073;-81
2021/05/17 06:28:27;;;;;;;3.25;1.80;;;;;;;11.80;91.14;99304.00;5014589;28;20092;-80
2021/05/17 06:31:04;;;;;;;2.63;2.00;;;;;;;11.75;90.56;99305.22;5000356;28;20189;-79
2021/05/17 06:33:32;;;;;;;5.47;2.20;;;;;;;11.74;90.48;99309.69;5015687;28;20050;-79
2021/05/17 06:35:59;;;;;;;4.13;2.17;;;;;;;11.84;91.27;99309.91;5024124;28;20117;-80
2021/05/17 06:38:31;;;;;;;4.05;2.05;;;;;;;11.93;91.51;99301.34;5021739;28;20510;-80
2021/05/17 06:40:58;;;;;;;3.17;1.70;;;;;;;12.20;89.92;99311.81;5023392;28;20069;-82
2021/05/17 06:43:42;;;;;;;5.40;2.70;;;;;;;12.40;88.50;99313.91;5021448;28;20125;-80
2021/05/17 06:46:10;;;;;;;5.35;1.65;;;;;;;12.61;88.16;99316.81;5025645;28;20073;-79
2021/05/17 06:48:45;;;;;;;3.45;1.80;;;;;;;12.63;87.25;99313.06;5017497;28;20077;-80
2021/05/17 06:51:16;;;;;;;4.45;1.65;;;;;;;12.67;87.54;99311.06;5025538;28;20049;-80
2021/05/17 06:53:45;;;;;;;3.30;1.58;;;;;;;12.92;87.12;99320.72;5023010;28;20041;-80
2021/05/17 06:56:25;;;;;;;3.80;2.00;;;;;;;13.28;85.39;99323.34;5024694;28;20049;-81
2021/05/17 07:01:25;;;;;;;5.40;2.35;;;;;;;13.90;82.12;99317.69;5023882;28;20105;-80
2021/05/17 07:03:53;;;;;;;6.18;2.00;;;;;;;14.97;78.33;99317.16;5019898;28;20050;-79
2021/05/17 07:06:25;;;;;;;4.57;1.55;;;;;;;16.16;73.14;99320.44;4999277;28;20054;-82
2021/05/17 07:12:06;;;;;;;2.20;1.10;;;;;;;18.44;62.55;99326.16;5025420;28;20045;-81
2021/05/17 07:14:33;;;;;;;1.75;0.98;;;;;;;20.07;54.34;99320.59;5020384;28;20069;-81
2021/05/17 07:17:00;;;;;;;1.70;0.90;;;;;;;20.00;54.68;99323.06;5023053;28;20054;-81
2021/05/17 07:19:29;;;;;;;1.92;0.88;;;;;;;19.16;56.20;99326.22;5026667;28;20565;-81
2021/05/17 07:24:46;;;;;;;1.42;0.80;;;;;;;18.52;57.25;99329.81;5022923;28;20054;-82
2021/05/17 07:27:13;;;;;;;2.03;0.90;;;;;;;17.78;60.00;99336.97;5028132;28;20128;-82
2021/05/17 07:29:42;;;;;;;2.83;1.83;;;;;;;16.83;62.47;99332.25;5033464;28;20050;-82
2021/05/17 07:32:10;;;;;;;3.08;1.17;;;;;;;16.12;65.07;99335.88;5035828;28;20065;-81
2021/05/17 07:34:45;;;;;;;1.80;1.10;;;;;;;15.62;67.06;99329.50;5033807;28;20046;-80
2021/05/17 07:37:11;;;;;;;2.83;1.13;;;;;;;15.37;67.19;99322.72;5034687;28;20129;-81
2021/05/17 07:39:38;;;;;;;2.38;1.10;;;;;;;15.28;68.67;99334.13;5031760;28;20041;-80
2021/05/17 07:42:09;;;;;;;4.03;1.58;;;;;;;16.06;67.49;99336.38;5038707;28;20053;-80
2021/05/17 07:44:36;;;;;;;4.43;1.70;;;;;;;17.45;63.34;99332.88;5031925;28;20046;-80
2021/05/17 07:47:03;;;;;;;2.05;1.15;;;;;;;18.73;56.69;99326.06;5034236;28;20041;-80
2021/05/17 07:49:43;;;;;;;1.98;1.00;;;;;;;18.98;57.48;99330.72;5028158;28;20046;-83
2021/05/17 07:52:10;;;;;;;4.05;1.50;;;;;;;19.08;56.48;99333.31;5028286;28;20038;-80
2021/05/17 07:54:37;;;;;;;2.22;1.40;;;;;;;18.80;55.85;99337.88;5032917;28;20045;-80
2021/05/17 07:57:06;;;;;;;3.53;1.40;;;;;;;18.35;57.18;99327.06;5035272;28;20050;-80
2021/05/17 07:59:34;;;;;;;2.45;1.38;;;;;;;17.72;60.16;99327.66;5030435;28;20049;-80
2021/05/17 08:02:02;;;;;;;6.40;1.48;;;;;;;17.21;62.35;99335.09;5023407;28;20065;-80
2021/05/17 08:04:30;;;;;;;6.18;1.85;;;;;;;16.63;63.64;99333.16;5007611;28;20110;-82
2021/05/17 08:06:57;;;;;;;2.35;1.05;;;;;;;15.96;63.95;99332.81;5025628;28;20089;-81
2021/05/17 08:09:26;;;;;;;3.67;1.20;;;;;;;15.28;65.41;99318.97;5031745;28;20050;-80
2021/05/17 08:11:54;;;;;;;2.72;1.02;;;;;;;14.85;68.25;99316.34;5025705;28;20105;-81
2021/05/17 08:14:21;;;;;;;3.70;1.50;;;;;;;14.51;71.12;99328.88;5027087;28;20050;-81
2021/05/17 08:16:48;;;;;;;2.65;1.50;;;;;;;14.20;72.99;99329.56;5009173;28;20074;-80
2021/05/17 08:19:16;;;;;;;4.68;1.30;;;;;;;14.06;73.98;99341.31;5035672;28;20045;-82
2021/05/17 08:21:44;;;;;;;5.63;1.40;;;;;;;13.86;74.54;99342.00;5027234;28;20503;-82
2021/05/17 08:24:11;;;;;;;5.38;1.77;;;;;;;13.80;77.18;99338.00;5019409;28;20060;-80
2021/05/17 08:26:40;;;;;;;5.68;1.63;;;;;;;13.71;77.58;99338.69;4996696;28;20052;-80
2021/05/17 08:29:07;;;;;;;5.20;1.38;;;;;;;13.63;76.19;99339.31;5015398;28;20069;-80
2021/05/17 08:31:36;;;;;;;2.97;1.10;;;;;;;13.65;76.24;99336.53;5004259;28;20050;-81
2021/05/17 08:34:03;;;;;;;4.35;1.17;;;;;;;13.85;75.61;99340.34;5024249;28;20125;-81
2021/05/17 08:36:29;;;;;;;6.25;1.63;;;;;;;14.48;73.88;99333.63;5021198;28;20075;-81
2021/05/17 08:38:56;;;;;;;6.95;1.15;;;;;;;14.83;73.17;99341.41;5020294;28;20050;-81
2021/05/17 08:41:23;;;;;;;3.30;1.52;;;;;;;14.76;71.28;99346.41;5024837;28;20082;-82
2021/05/17 08:43:50;;;;;;;4.88;1.30;;;;;;;14.40;70.70;99342.22;5019206;28;20960;-81
2021/05/17 08:46:17;;;;;;;4.93;1.67;;;;;;;14.01;71.79;99351.47;5020892;28;20061;-83
2021/05/17 08:48:51;;;;;;;3.85;1.17;;;;;;;13.73;72.88;99344.75;5024016;28;20055;-81
2021/05/17 08:51:29;;;;;;;6.07;1.50;;;;;;;13.51;73.97;99342.06;5003618;28;20081;-81
2021/05/17 08:54:02;;;;;;;3.35;1.33;;;;;;;13.43;74.62;99345.28;5020315;28;20348;-80
2021/05/17 08:56:29;;;;;;;4.13;1.65;;;;;;;13.47;75.13;99349.41;5017340;28;20061;-80
2021/05/17 08:59:03;;;;;;;6.35;2.00;;;;;;;14.03;75.62;99349.53;5017616;28;20094;-81
2021/05/17 09:01:31;;;;;;;4.65;1.70;;;;;;;14.72;73.08;99336.97;5017973;28;20117;-81
2021/05/17 09:04:06;;;;;;;5.22;1.50;;;;;;;15.23;70.72;99336.34;5026321;28;20050;-80
2021/05/17 09:06:40;;;;;;;6.03;1.60;;;;;;;15.43;69.17;99335.50;4995889;28;20046;-81
2021/05/17 09:09:22;;;;;;;4.07;1.38;;;;;;;15.66;67.94;99336.28;5020186;28;20057;-81
2021/05/17 09:11:51;;;;;;;2.97;1.02;;;;;;;15.89;65.61;99345.03;5000083;28;20077;-81
2021/05/17 09:14:18;;;;;;;4.07;1.40;;;;;;;16.02;65.02;99340.31;5017600;28;20050;-81
2021/05/17 09:16:57;;;;;;;3.28;0.90;;;;;;;16.11;62.80;99319.00;5021511;28;20045;-81
2021/05/17 09:19:26;;;;;;;2.35;1.10;;;;;;;16.45;61.95;99332.09;5004045;28;20104;-81
2021/05/17 09:22:21;;;;;;;3.33;1.20;;;;;;;16.42;60.39;99335.88;5018845;28;20046;-80
2021/05/17 09:24:57;;;;;;;5.47;1.08;;;;;;;16.54;61.25;99335.75;5020248;28;20100;-81
2021/05/17 09:27:28;;;;;;;4.50;1.10;;;;;;;16.60;60.26;99337.91;5020344;28;20140;-81
2021/05/17 09:30:01;;;;;;;1.73;1.00;;;;;;;16.52;59.12;99337.75;5004602;28;20037;-81
2021/05/17 09:32:38;;;;;;;3.45;0.82;;;;;;;16.17;58.72;99344.34;5015211;28;20141;-80
2021/05/17 09:35:17;;;;;;;3.70;0.90;;;;;;;15.83;60.54;99349.06;5020973;28;20125;-82
2021/05/17 09:37:44;;;;;;;3.78;1.23;;;;;;;15.89;60.69;99345.03;5017921;28;20049;-80
2021/05/17 09:40:19;;;;;;;2.50;1.10;;;;;;;15.84;61.83;99347.22;5020581;28;20184;-80
2021/05/17 09:43:05;;;;;;;2.80;1.25;;;;;;;15.54;61.43;99351.50;5019642;28;20053;-81
2021/05/17 09:45:46;;;;;;;3.33;1.17;;;;;;;15.16;64.73;99367.16;5011066;28;20121;-81
2021/05/17 09:48:18;;;;;;;4.22;1.30;;;;;;;14.72;68.87;99376.94;5024693;28;20117;-80
2021/05/17 09:51:14;;;;;;;3.90;1.50;;;;;;;14.32;72.27;99377.38;5015469;28;20049;-81
2021/05/17 09:53:50;;;;;;;6.30;1.10;;;;;;;14.25;74.12;99375.34;5001349;28;20046;-80
2021/05/17 09:56:23;;;;;;;4.57;1.20;;;;;;;14.43;73.51;99370.41;5008968;28;20054;-81
2021/05/17 09:58:57;;;;;;;1.45;0.95;;;;;;;14.86;71.47;99365.16;5019051;28;21005;-80
2021/05/17 10:01:28;;;;;;;2.50;1.10;;;;;;;15.54;69.91;99364.84;5020014;28;20084;-81
2021/05/17 10:04:05;;;;;;;3.17;1.10;;;;;;;16.27;67.59;99353.22;5019127;28;20113;-80
2021/05/17 10:06:33;;;;;;;3.03;0.90;;;;;;;16.79;66.55;99351.34;5027960;28;20089;-80
2021/05/17 10:09:01;;;;;;;3.53;1.00;;;;;;;16.93;64.22;99347.44;5023959;28;20207;-81
2021/05/17 10:11:28;;;;;;;1.80;0.70;;;;;;;16.96;62.93;99342.69;5026731;28;20065;-80
2021/05/17 10:13:56;;;;;;;2.97;1.20;;;;;;;16.86;62.03;99341.78;5024558;28;20073;-81
2021/05/17 10:16:23;;;;;;;3.15;0.80;;;;;;;16.51;62.83;99357.44;5027980;28;20065;-82
2021/05/17 10:18:50;;;;;;;1.15;0.82;;;;;;;16.09;64.35;99360.16;5030612;28;20053;-81
2021/05/17 10:21:22;;;;;;;3.67;1.13;;;;;;;15.90;66.49;99347.53;5025127;28;20112;-79
2021/05/17 10:23:49;;;;;;;2.92;1.35;;;;;;;16.03;65.56;99353.53;5019717;28;20046;-83
2021/05/17 10:26:24;;;;;;;3.28;1.10;;;;;;;16.26;64.09;99346.19;4987827;28;20089;-83
2021/05/17 10:29:00;;;;;;;2.78;1.13;;;;;;;16.37;62.69;99340.75;5022948;28;20070;-84
2021/05/17 10:31:32;;;;;;;2.30;0.75;;;;;;;16.34;63.78;99346.41;5020796;28;20115;-84
2021/05/17 10:34:04;;;;;;;3.33;0.88;;;;;;;16.29;60.51;99350.44;4982965;28;20721;-84
2021/05/17 10:37:02;;;;;;;2.17;0.90;;;;;;;16.44;59.94;99347.28;5018575;28;20049;-83
2021/05/17 10:39:46;;;;;;;2.42;1.30;;;;;;;16.80;61.04;99350.38;5016054;28;20041;-83
2021/05/17 10:48:12;;;;;;;3.83;1.60;;;;;;;17.34;60.70;99346.38;5025860;28;20053;-83
2021/05/17 10:50:41;;;;;;;2.03;1.00;;;;;;;17.37;58.39;99346.94;5029478;28;20050;-83
2021/05/17 10:53:42;;;;;;;1.73;1.00;;;;;;;17.58;56.39;99337.94;5027086;28;20046;-84
2021/05/17 10:56:10;;;;;;;4.50;1.10;;;;;;;17.68;57.90;99320.88;5009158;28;20105;-83
2021/05/17 11:01:52;;;;;;;0.93;0.70;;;;;;;17.52;54.91;99334.81;5015237;28;20080;-82
2021/05/17 11:04:23;;;;;;;2.50;1.00;;;;;;;17.40;56.26;99335.94;5012794;28;20056;-83
2021/05/17 11:07:13;;;;;;;2.25;0.70;;;;;;;17.36;55.05;99328.34;5013541;28;20077;-84
2021/05/17 11:09:53;;;;;;;1.48;0.70;;;;;;;17.38;56.77;99323.69;5013631;28;20045;-83
2021/05/17 11:12:26;;;;;;;1.60;0.70;;;;;;;17.25;54.78;99331.16;5017780;28;20074;-83
2021/05/17 11:15:10;;;;;;;1.42;0.75;;;;;;;17.09;55.94;99327.22;5024327;28;20561;-84
2021/05/17 11:17:56;;;;;;;2.40;0.90;;;;;;;16.98;55.88;99326.50;5022764;28;20350;-84
2021/05/17 11:20:38;;;;;;;2.72;0.90;;;;;;;16.94;55.03;99330.44;5017287;28;20057;-83
2021/05/17 11:23:19;;;;;;;2.20;0.70;;;;;;;16.98;55.60;99330.03;5015961;28;20045;-83
2021/05/17 11:28:34;;;;;;;2.83;0.95;;;;;;;17.44;52.49;99325.81;5027018;28;20562;-83
2021/05/17 11:31:18;;;;;;;2.17;0.40;;;;;;;17.60;52.83;99330.59;5020573;28;20052;-83
2021/05/17 11:34:03;;;;;;;1.75;0.50;;;;;;;17.56;51.97;99319.31;5000004;28;20038;-83
2021/05/17 11:36:39;;;;;;;1.48;0.50;;;;;;;17.18;53.43;99347.75;5014331;28;20081;-85
2021/05/17 11:42:07;;;;;;;0.90;0.40;;;;;;;16.35;55.74;99352.59;5016847;28;20042;-81
2021/05/17 11:47:19;;;;;;;3.80;0.70;;;;;;;15.57;61.47;99385.97;5017859;28;20535;-83
2021/05/17 11:49:50;;;;;;;1.58;0.70;;;;;;;15.05;64.52;99392.88;5022508;28;20334;-85
2021/05/17 11:52:29;;;;;;;1.23;0.70;;;;;;;14.68;66.38;99384.31;5017392;28;20053;-84
2021/05/17 11:55:00;;;;;;;2.72;0.95;;;;;;;14.39;67.24;99367.09;5031351;28;20049;-83
2021/05/17 11:57:35;;;;;;;1.00;0.40;;;;;;;14.11;70.05;99371.09;5028439;28;20049;-83
2021/05/17 12:00:07;;;;;;;1.52;0.55;;;;;;;13.58;72.13;99380.50;5023862;28;20053;-83
2021/05/17 12:02:34;;;;;;;1.35;0.57;;;;;;;13.22;73.92;99400.06;5020822;28;20145;-84
2021/05/17 12:05:02;;;;;;;3.33;0.90;;;;;;;12.88;77.03;99386.56;5034909;28;20046;-85
2021/05/17 12:07:42;;;;;;;0.70;0.57;;;;;;;12.69;78.40;99383.50;5020277;28;20050;-84
2021/05/17 12:10:16;;;;;;;0.82;0.73;;;;;;;12.57;80.14;99382.59;5010938;28;20408;-83
2021/05/17 12:12:44;;;;;;;4.03;0.95;;;;;;;12.47;81.36;99391.28;5021069;28;20065;-83
2021/05/17 12:15:17;;;;;;;2.28;0.65;;;;;;;12.40;82.91;99387.38;5030164;28;20054;-83
2021/05/17 12:17:43;;;;;;;1.83;0.85;;;;;;;12.45;84.63;99382.59;5020487;28;20038;-84
2021/05/17 12:20:14;;;;;;;3.35;1.33;;;;;;;12.74;85.25;99384.03;5030635;28;20051;-84
2021/05/17 12:22:48;;;;;;;1.88;1.15;;;;;;;13.32;85.32;99377.16;5028144;28;20037;-84